Irvington, New Jersey
Current Conditions -  °F | °C
As of 3:51 AM on Monday 22 Dec 2014 (Local Time) from KEWR Reporting Station
Overcast Overcast  
Wind Chill: 30°   Ceiling: 3200
Heat Index: 35°   Visibility: 10mi
Dew Point: 30°   Wind: 6mph
Humidity: 82%   Direction: 10°N
Pressure: 30.33"   Gusts: NA
Location:  40.73°N, 74.23°W
Report Text: KEWR 220851Z 01005KT 10SM SCT018 OVC032 02/M01 A3033 RMK AO2 SLP269 T00171011 50000
Loading
Personal Weather Stations






























Interactive Weather Map New forecast layout! Learn more

10-Day Weather Forecast

Advertisements
Track Severe Weather on mobile